Terminal Aerodrome Forecast
Issued by NWS Sioux Falls, SD

Home | Current Version | Previous Version | Text Only | Print | Product List | Glossary On
Versions: 1 2 3 4 5 6 7 8 9 10 11 12 13 14 15 16 17 18 19 20 21 22 23 24 25 26 27 28 29 30 31 32 33 34 35 36 37 38
000
FTUS43 KFSD 302330
TAFSUX
TAF
KSUX 302330Z 0100/0124 16012KT P6SM SCT020
      TEMPO 0100/0104 BKN020
     FM010400 14008KT P6SM OVC015
     FM011500 17007KT P6SM SCT015 OVC090
     FM012100 18006KT P6SM SCT040 BKN100=

USA.gov is the U.S. government's official web portal to all federal, state and local government web resources and services.